createdAt,value
2019-03-09T00:03:53.421Z,97254.64
2019-03-09T00:08:47.993Z,97258.71
2019-03-09T00:13:42.580Z,97258.60
2019-03-09T00:18:37.722Z,97252.30
2019-03-09T00:23:34.144Z,97253.03
2019-03-09T00:28:30.357Z,97233.34
2019-03-09T00:33:24.942Z,97239.86
2019-03-09T00:38:19.523Z,97239.55
2019-03-09T00:43:14.135Z,97225.20
2019-03-09T00:48:08.714Z,97243.05
2019-03-09T00:53:03.322Z,97240.28
2019-03-09T00:57:57.930Z,97226.81
2019-03-09T01:02:52.601Z,97231.42
2019-03-09T01:07:47.261Z,97231.16
2019-03-09T01:12:41.832Z,97229.75
2019-03-09T01:17:36.437Z,97238.42
2019-03-09T01:22:31.030Z,97241.76
2019-03-09T01:27:25.611Z,97238.94
2019-03-09T01:32:20.355Z,97230.00
2019-03-09T01:37:14.950Z,97209.17
2019-03-09T01:42:09.571Z,97208.96
2019-03-09T01:47:04.263Z,97199.61
2019-03-09T01:51:58.907Z,97204.01
2019-03-09T01:56:53.551Z,97207.02
2019-03-09T02:01:48.156Z,97203.43
2019-03-09T02:06:42.731Z,97210.78
2019-03-09T02:11:37.385Z,97204.89
2019-03-09T02:16:32.044Z,97208.80
2019-03-09T02:21:26.625Z,97194.61
2019-03-09T02:26:21.189Z,97181.34
2019-03-09T02:31:15.800Z,97173.34
2019-03-09T02:36:10.382Z,97156.97
2019-03-09T02:41:05.029Z,97163.59
2019-03-09T02:45:59.627Z,97160.28
2019-03-09T02:50:56.910Z,97156.55
2019-03-09T02:55:51.599Z,97150.55
2019-03-09T03:00:50.278Z,97147.88
2019-03-09T03:05:44.860Z,97144.80
2019-03-09T03:10:39.439Z,97145.70
2019-03-09T03:15:36.913Z,97145.63
2019-03-09T03:20:31.708Z,97146.15
2019-03-09T03:25:26.375Z,97141.04
2019-03-09T03:30:21.046Z,97140.05
2019-03-09T03:35:15.751Z,97138.36
2019-03-09T03:40:11.840Z,97133.03
2019-03-09T03:45:15.301Z,97139.56
2019-03-09T03:50:10.225Z,97126.34
2019-03-09T03:55:06.937Z,97128.64
2019-03-09T04:00:01.690Z,97123.34
2019-03-09T04:04:56.458Z,97126.64
2019-03-09T04:09:51.762Z,97120.03
2019-03-09T04:14:46.392Z,97132.53
2019-03-09T04:19:41.006Z,97134.73
2019-03-09T04:24:37.215Z,97133.73
2019-03-09T04:29:31.805Z,97130.70
2019-03-09T04:34:26.440Z,97136.16
2019-03-09T04:39:21.021Z,97135.44
2019-03-09T04:44:15.585Z,97137.88
2019-03-09T04:49:10.186Z,97139.17
2019-03-09T04:54:04.763Z,97128.31
2019-03-09T04:58:59.345Z,97134.14
2019-03-09T05:04:07.341Z,97132.23
2019-03-09T05:09:06.462Z,97126.20
2019-03-09T05:14:01.074Z,97128.52
2019-03-09T05:18:55.669Z,97137.58
2019-03-09T05:23:50.262Z,97134.73
2019-03-09T05:28:44.834Z,97123.08
2019-03-09T05:33:39.429Z,97130.02
2019-03-09T05:38:34.021Z,97123.07
2019-03-09T05:43:28.588Z,97112.41
2019-03-09T05:48:23.194Z,97121.75
2019-03-09T05:53:20.193Z,97126.80
2019-03-09T05:58:14.774Z,97130.72
2019-03-09T06:03:09.427Z,97125.38
2019-03-09T06:08:04.540Z,97137.23
2019-03-09T06:12:59.355Z,97153.84
2019-03-09T06:17:54.015Z,97154.92
2019-03-09T06:22:48.609Z,97175.05
2019-03-09T06:27:43.175Z,97172.50
2019-03-09T06:32:42.363Z,97173.11
2019-03-09T06:37:36.938Z,97192.93
2019-03-09T06:42:41.890Z,97193.53
2019-03-09T06:47:36.516Z,97220.70
2019-03-09T06:52:31.104Z,97199.38
2019-03-09T06:57:25.677Z,97244.77
2019-03-09T07:02:20.347Z,97253.20
2019-03-09T07:07:14.922Z,97254.30
2019-03-09T07:12:09.506Z,97253.78
2019-03-09T07:17:04.074Z,97264.45
2019-03-09T07:21:58.665Z,97266.08
2019-03-09T07:26:53.265Z,97277.86
2019-03-09T07:31:47.872Z,97283.39
2019-03-09T07:36:42.462Z,97288.64
2019-03-09T07:41:37.044Z,97299.00
2019-03-09T07:46:31.627Z,97295.77
2019-03-09T07:51:26.207Z,97297.67
2019-03-09T07:56:20.789Z,97309.27
2019-03-09T08:01:15.403Z,97318.83
2019-03-09T08:06:09.975Z,97333.40
2019-03-09T08:11:04.641Z,97338.23
2019-03-09T08:15:59.212Z,97342.06
2019-03-09T08:20:53.809Z,97334.14
2019-03-09T08:25:48.397Z,97348.11
2019-03-09T08:30:42.968Z,97351.23
2019-03-09T08:35:37.565Z,97359.59
2019-03-09T08:40:32.146Z,97357.66
2019-03-09T08:45:26.748Z,97346.69
2019-03-09T08:50:23.365Z,97364.59
2019-03-09T08:55:19.155Z,97365.80
2019-03-09T09:00:18.369Z,97372.67
2019-03-09T09:05:12.961Z,97373.67
2019-03-09T09:10:10.825Z,97371.45
2019-03-09T09:15:09.859Z,97360.55
2019-03-09T09:20:06.539Z,97367.06
2019-03-09T09:25:01.122Z,97359.69
2019-03-09T09:29:55.725Z,97359.20
2019-03-09T09:34:50.319Z,97350.42
2019-03-09T09:39:44.928Z,97349.69
2019-03-09T09:44:39.519Z,97352.07
2019-03-09T09:49:34.200Z,97343.90
2019-03-09T09:54:28.790Z,97332.03
2019-03-09T09:59:23.436Z,97341.00
2019-03-09T10:04:18.036Z,97348.63
2019-03-09T10:09:12.651Z,97335.24
2019-03-09T10:14:07.275Z,97332.31
2019-03-09T10:19:01.885Z,97322.33
2019-03-09T10:23:56.522Z,97317.23
2019-03-09T10:28:51.142Z,97315.84
2019-03-09T10:33:45.722Z,97305.95
2019-03-09T10:38:40.311Z,97299.45
2019-03-09T10:43:34.883Z,97279.96
2019-03-09T10:48:29.481Z,97282.95
2019-03-09T10:53:24.057Z,97268.67
2019-03-09T10:58:18.656Z,97246.73
2019-03-09T11:03:13.253Z,97242.84
2019-03-09T11:08:08.075Z,97242.44
2019-03-09T11:13:02.668Z,97235.95
2019-03-09T11:17:57.244Z,97226.34
2019-03-09T11:22:51.897Z,97229.70
2019-03-09T11:27:46.479Z,97209.28
2019-03-09T11:32:41.099Z,97207.15
2019-03-09T11:37:35.694Z,97189.83
2019-03-09T11:42:30.274Z,97200.64
2019-03-09T11:47:24.890Z,97184.89
2019-03-09T11:52:20.632Z,97174.80
2019-03-09T11:57:15.439Z,97172.69
2019-03-09T12:02:10.043Z,97172.27
2019-03-09T12:07:04.712Z,97160.50
2019-03-09T12:12:02.785Z,97143.47
2019-03-09T12:16:57.373Z,97156.02
2019-03-09T12:21:51.961Z,97148.88
2019-03-09T12:26:46.563Z,97116.48
2019-03-09T12:31:41.142Z,97107.35
2019-03-09T12:36:35.732Z,97101.64
2019-03-09T12:41:30.320Z,97079.88
2019-03-09T12:46:24.902Z,97072.45
2019-03-09T12:51:19.506Z,97083.42
2019-03-09T12:56:14.103Z,97071.03
2019-03-09T13:01:08.692Z,97049.92
2019-03-09T13:06:03.281Z,97057.86
2019-03-09T13:10:57.941Z,97067.00
2019-03-09T13:15:52.610Z,97083.71
2019-03-09T13:20:47.195Z,97109.31
2019-03-09T13:25:41.844Z,97094.41
2019-03-09T13:30:36.420Z,97095.86
2019-03-09T13:35:31.016Z,97110.58
2019-03-09T13:40:25.597Z,97100.45
2019-03-09T13:45:20.196Z,97116.30
2019-03-09T13:50:16.041Z,97115.29
2019-03-09T13:55:12.071Z,97113.93
2019-03-09T14:00:11.097Z,97100.37
2019-03-09T14:05:08.730Z,97093.92
2019-03-09T14:10:03.970Z,97081.61
2019-03-09T14:14:58.570Z,97094.04
2019-03-09T14:19:53.215Z,97097.25
2019-03-09T14:24:47.821Z,97085.75
2019-03-09T14:29:42.410Z,97096.97
2019-03-09T14:34:37.036Z,97077.09
2019-03-09T14:39:31.613Z,97092.98
2019-03-09T14:44:26.206Z,97076.53
2019-03-09T14:49:20.783Z,97096.02
2019-03-09T14:54:15.366Z,97119.45
2019-03-09T14:59:10.058Z,97120.48
2019-03-09T15:04:04.794Z,97138.84
2019-03-09T15:08:59.399Z,97155.16
2019-03-09T15:13:55.800Z,97161.22
2019-03-09T15:18:50.392Z,97176.52
2019-03-09T15:23:44.994Z,97176.78
2019-03-09T15:28:39.570Z,97174.89
2019-03-09T15:33:34.172Z,97158.27
2019-03-09T15:38:28.759Z,97146.48
2019-03-09T15:43:23.362Z,97150.27
2019-03-09T15:48:18.092Z,97135.94
2019-03-09T15:53:12.700Z,97152.23
2019-03-09T15:58:07.565Z,97151.52
2019-03-09T16:03:02.165Z,97168.36
2019-03-09T16:07:56.743Z,97174.06
2019-03-09T16:12:51.332Z,97159.08
2019-03-09T16:17:46.141Z,97169.50
2019-03-09T16:22:40.802Z,97191.47
2019-03-09T16:27:35.376Z,97190.17
2019-03-09T16:32:29.977Z,97185.38
2019-03-09T16:37:24.574Z,97181.45
2019-03-09T16:42:19.180Z,97192.08
2019-03-09T16:47:13.748Z,97190.17
2019-03-09T16:52:08.344Z,97199.19
2019-03-09T16:57:02.948Z,97218.70
2019-03-09T17:01:57.552Z,97222.00
2019-03-09T17:06:52.231Z,97227.66
2019-03-09T17:11:46.817Z,97239.45
2019-03-09T17:16:41.418Z,97238.77
2019-03-09T17:21:36.013Z,97232.44
2019-03-09T17:26:30.607Z,97269.98
2019-03-09T17:31:25.279Z,97258.23
2019-03-09T17:36:19.878Z,97272.48
2019-03-09T17:41:14.500Z,97274.44
2019-03-09T17:46:09.079Z,97280.16
2019-03-09T17:51:03.700Z,97288.89
2019-03-09T17:55:58.320Z,97300.03
2019-03-09T18:00:52.928Z,97309.38
2019-03-09T18:05:47.504Z,97322.58
2019-03-09T18:10:49.672Z,97335.73
2019-03-09T18:15:44.341Z,97348.45
2019-03-09T18:20:38.943Z,97334.15
2019-03-09T18:25:33.604Z,97346.83
2019-03-09T18:30:28.192Z,97354.87
2019-03-09T18:35:22.772Z,97356.27
2019-03-09T18:40:18.328Z,97344.36
2019-03-09T18:45:24.071Z,97346.46
2019-03-09T18:50:18.673Z,97343.92
2019-03-09T18:55:13.466Z,97343.73
2019-03-09T19:00:18.046Z,97344.83
2019-03-09T19:05:12.773Z,97358.95
2019-03-09T19:10:11.958Z,97334.55
2019-03-09T19:15:10.612Z,97337.80
2019-03-09T19:20:08.552Z,97338.27
2019-03-09T19:25:03.196Z,97336.52
2019-03-09T19:29:57.853Z,97338.35
2019-03-09T19:34:52.430Z,97338.22
2019-03-09T19:39:47.139Z,97346.39
2019-03-09T19:44:41.692Z,97332.28
2019-03-09T19:49:36.287Z,97345.30
2019-03-09T19:54:30.905Z,97345.47
2019-03-09T19:59:25.497Z,97351.73
2019-03-09T20:04:20.085Z,97351.16
2019-03-09T20:09:15.525Z,97347.78
2019-03-09T20:14:10.126Z,97346.94
2019-03-09T20:19:04.733Z,97346.83
2019-03-09T20:23:59.350Z,97343.16
2019-03-09T20:28:53.943Z,97326.70
2019-03-09T20:33:48.534Z,97333.64
2019-03-09T20:38:43.154Z,97329.56
2019-03-09T20:43:37.726Z,97324.13
2019-03-09T20:48:32.329Z,97320.26
2019-03-09T20:53:26.902Z,97316.55
2019-03-09T20:58:21.498Z,97320.97
2019-03-09T21:03:16.096Z,97324.58
2019-03-09T21:08:10.697Z,97329.38
2019-03-09T21:13:12.810Z,97337.66
2019-03-09T21:18:07.452Z,97346.47
2019-03-09T21:23:02.057Z,97346.39
2019-03-09T21:27:56.629Z,97329.39
2019-03-09T21:32:51.230Z,97329.00
2019-03-09T21:37:45.815Z,97332.04
2019-03-09T21:42:40.474Z,97331.73
2019-03-09T21:47:35.056Z,97328.32
2019-03-09T21:52:29.649Z,97329.33
2019-03-09T21:57:24.254Z,97328.24
2019-03-09T22:02:18.854Z,97330.86
2019-03-09T22:07:13.455Z,97336.52
2019-03-09T22:12:08.071Z,97341.69
2019-03-09T22:17:02.657Z,97336.74
2019-03-09T22:21:57.253Z,97354.02
2019-03-09T22:26:51.848Z,97349.02
2019-03-09T22:31:46.441Z,97327.50
2019-03-09T22:36:41.033Z,97324.00
2019-03-09T22:41:35.647Z,97306.86
2019-03-09T22:46:30.253Z,97311.05
2019-03-09T22:51:24.866Z,97304.41
2019-03-09T22:56:19.524Z,97302.30
2019-03-09T23:01:14.249Z,97282.56
2019-03-09T23:06:08.857Z,97283.20
2019-03-09T23:11:03.449Z,97281.88
2019-03-09T23:15:58.045Z,97281.02
2019-03-09T23:20:52.631Z,97261.04
2019-03-09T23:25:47.237Z,97252.19
2019-03-09T23:30:41.850Z,97239.16
2019-03-09T23:35:36.501Z,97233.74
2019-03-09T23:40:31.096Z,97228.09
2019-03-09T23:45:29.518Z,97249.70
2019-03-09T23:50:24.306Z,97227.33
2019-03-09T23:55:22.367Z,97229.19
